Time;durP1;ratioP1;P1;durP2;ratioP2;P2;SDS_P1;SDS_P2;PMS_P1;PMS_P2;Temp;Humidity;BMP_temperature;BMP_pressure;BME280_temperature;BME280_humidity;BME280_pressure;Samples;Min_cycle;Max_cycle;Signal;HPM_P1;HPM_P2
2023/03/14 00:02:08;;;;;;;14.17;6.83;;;;;;;41.39;37.15;100805.41;6153653;23;20714;-77
2023/03/14 00:04:34;;;;;;;13.17;8.30;;;;;;;41.65;36.86;100803.25;6153469;23;20887;-77
2023/03/14 00:07:00;;;;;;;20.40;7.67;;;;;;;41.47;37.31;100801.81;6153329;23;20985;-77
2023/03/14 00:09:26;;;;;;;13.23;7.00;;;;;;;41.40;37.49;100799.63;6153466;23;20476;-77
2023/03/14 00:11:53;;;;;;;14.50;7.57;;;;;;;41.39;37.28;100810.84;6153540;23;20409;-76
2023/03/14 00:14:19;;;;;;;16.73;6.47;;;;;;;41.30;37.28;100797.25;6153454;23;20436;-77
2023/03/14 00:16:48;;;;;;;15.30;8.00;;;;;;;41.49;37.09;100804.97;6153233;23;20760;-76
2023/03/14 00:19:14;;;;;;;14.63;6.73;;;;;;;41.57;36.75;100798.69;6153211;23;20419;-77
2023/03/14 00:21:40;;;;;;;22.80;8.00;;;;;;;41.24;36.94;100788.47;6153497;23;20377;-77
2023/03/14 00:24:07;;;;;;;20.90;7.40;;;;;;;41.42;37.12;100789.19;6153166;23;20409;-77
2023/03/14 00:26:33;;;;;;;16.17;7.23;;;;;;;41.54;37.18;100793.91;6153428;23;20483;-76
2023/03/14 00:28:59;;;;;;;15.70;7.87;;;;;;;41.71;36.49;100792.97;6153262;23;20437;-77
2023/03/14 00:31:25;;;;;;;19.87;7.10;;;;;;;41.80;36.53;100782.78;6153291;23;20428;-77
2023/03/14 00:33:52;;;;;;;13.73;6.53;;;;;;;42.06;36.20;100783.34;6153261;23;20443;-76
2023/03/14 00:36:20;;;;;;;18.57;8.77;;;;;;;41.90;36.64;100785.09;6155206;23;20443;-77
2023/03/14 00:38:48;;;;;;;19.93;8.23;;;;;;;41.71;36.99;100780.13;6153333;23;20730;-77
2023/03/14 00:41:17;;;;;;;17.90;7.70;;;;;;;41.77;36.40;100791.66;6153532;23;20381;-76
2023/03/14 00:43:43;;;;;;;19.60;7.90;;;;;;;41.96;36.41;100788.41;6153096;23;20401;-77
2023/03/14 00:46:10;;;;;;;16.03;6.43;;;;;;;41.83;36.60;100788.38;6153419;23;20411;-77
2023/03/14 00:48:36;;;;;;;13.37;6.67;;;;;;;41.90;36.70;100778.88;6155017;23;20364;-77
2023/03/14 00:51:03;;;;;;;11.90;7.70;;;;;;;41.90;35.98;100781.59;6152862;23;20428;-77
2023/03/14 00:53:29;;;;;;;13.93;6.30;;;;;;;41.74;36.47;100774.06;6153027;23;20412;-77
2023/03/14 00:55:55;;;;;;;13.27;6.40;;;;;;;41.70;36.60;100764.94;6153466;23;20718;-77
2023/03/14 00:58:22;;;;;;;13.70;7.43;;;;;;;41.74;36.44;100760.44;6152910;23;20905;-78
2023/03/14 01:00:48;;;;;;;21.37;9.50;;;;;;;41.81;36.27;100763.41;6153219;23;20418;-77
2023/03/14 01:03:15;;;;;;;13.90;7.70;;;;;;;41.79;36.40;100759.41;6153037;23;20381;-76
2023/03/14 01:05:41;;;;;;;12.20;7.50;;;;;;;41.86;36.32;100754.22;6153309;23;20377;-77
2023/03/14 01:08:08;;;;;;;14.50;7.43;;;;;;;41.88;36.39;100759.34;6152965;23;20444;-77
2023/03/14 01:10:38;;;;;;;11.90;6.70;;;;;;;41.85;36.17;100758.06;6153128;23;20429;-77
2023/03/14 01:13:03;;;;;;;12.43;7.40;;;;;;;41.76;36.37;100744.53;6153196;23;20405;-77
2023/03/14 01:15:30;;;;;;;20.67;8.73;;;;;;;41.68;35.94;100752.75;6153167;23;20400;-77
2023/03/14 01:17:56;;;;;;;17.57;7.43;;;;;;;41.66;36.68;100755.81;6152964;23;20389;-77
2023/03/14 01:20:22;;;;;;;16.50;8.60;;;;;;;41.65;36.34;100753.44;6153120;23;20973;-77
2023/03/14 01:22:48;;;;;;;19.33;7.67;;;;;;;41.72;36.20;100742.78;6155147;23;20830;-77
2023/03/14 01:25:16;;;;;;;20.40;5.43;;;;;;;41.71;36.34;100730.31;6152854;23;20393;-76
2023/03/14 01:27:42;;;;;;;16.00;8.10;;;;;;;41.78;36.18;100731.38;6153131;23;20745;-77
2023/03/14 01:30:10;;;;;;;13.63;6.90;;;;;;;41.61;36.21;100729.59;6154978;23;20432;-77
2023/03/14 01:32:36;;;;;;;16.30;6.77;;;;;;;41.91;36.31;100732.19;6155034;23;20417;-76
2023/03/14 01:35:03;;;;;;;15.30;6.80;;;;;;;42.00;36.34;100723.94;6155117;23;20388;-77
2023/03/14 01:37:29;;;;;;;13.50;7.00;;;;;;;41.96;36.07;100726.53;6154826;23;20858;-77
2023/03/14 01:39:55;;;;;;;24.47;7.67;;;;;;;41.86;35.86;100716.84;6155081;23;20937;-77
2023/03/14 01:42:21;;;;;;;14.83;7.23;;;;;;;41.93;36.28;100716.34;6156860;23;20362;-77
2023/03/14 01:44:56;;;;;;;15.07;7.73;;;;;;;41.79;36.14;100707.66;6155675;23;20388;-77
2023/03/14 01:47:22;;;;;;;18.70;6.37;;;;;;;41.88;36.11;100718.47;6154895;23;20384;-77
2023/03/14 01:50:11;;;;;;;25.10;7.70;;;;;;;41.34;36.80;100711.09;6154707;23;20428;-77
2023/03/14 01:52:44;;;;;;;16.23;7.30;;;;;;;41.64;36.31;100713.72;6156849;23;20416;-76
2023/03/14 01:55:15;;;;;;;17.03;6.70;;;;;;;41.71;35.92;100708.53;6154818;23;20427;-76
2023/03/14 01:57:47;;;;;;;12.33;6.20;;;;;;;41.48;36.31;100713.53;6154680;23;20396;-77
2023/03/14 02:00:16;;;;;;;18.10;7.53;;;;;;;41.58;35.81;100705.75;6154670;23;20468;-77
2023/03/14 02:02:46;;;;;;;16.43;8.03;;;;;;;41.62;35.78;100705.91;6154732;23;20389;-77
2023/03/14 02:05:15;;;;;;;26.43;7.87;;;;;;;41.83;35.81;100701.22;6155103;23;20388;-77
2023/03/14 02:07:52;;;;;;;14.40;6.37;;;;;;;41.84;35.98;100712.91;6154348;23;20499;-76
2023/03/14 02:10:21;;;;;;;14.80;7.77;;;;;;;41.74;35.58;100702.38;6154687;23;20432;-77
2023/03/14 02:12:49;;;;;;;19.70;7.43;;;;;;;41.73;35.61;100698.06;6156556;23;20397;-77
2023/03/14 02:15:15;;;;;;;26.77;7.60;;;;;;;41.64;36.01;100691.94;6156650;23;20376;-77
2023/03/14 02:17:43;;;;;;;17.10;8.00;;;;;;;41.71;36.06;100694.91;6154458;23;20392;-77
2023/03/14 02:20:15;;;;;;;19.23;6.83;;;;;;;41.97;35.84;100695.44;6154690;23;20415;-77
2023/03/14 02:22:45;;;;;;;23.43;8.20;;;;;;;42.05;35.55;100686.38;6154571;23;20396;-76
2023/03/14 02:25:27;;;;;;;16.07;8.20;;;;;;;41.95;35.62;100686.03;6154560;23;20440;-77
2023/03/14 02:27:53;;;;;;;17.60;5.93;;;;;;;42.07;35.30;100672.41;6154720;23;20389;-77
2023/03/14 02:30:25;;;;;;;17.50;6.77;;;;;;;42.07;35.31;100675.13;6154255;23;20428;-77
2023/03/14 02:33:02;;;;;;;19.00;8.60;;;;;;;41.79;36.16;100675.75;6154699;23;20437;-77
2023/03/14 02:35:35;;;;;;;18.23;7.13;;;;;;;41.76;35.60;100673.72;6154348;23;20396;-77
2023/03/14 02:38:11;;;;;;;20.33;10.03;;;;;;;41.84;35.57;100667.38;6154541;23;20408;-77
2023/03/14 02:40:37;;;;;;;23.73;7.30;;;;;;;41.72;35.47;100675.50;6153842;23;20381;-77
2023/03/14 02:43:03;;;;;;;14.03;7.50;;;;;;;41.82;35.30;100675.09;6154466;23;20740;-77
2023/03/14 02:45:40;;;;;;;13.23;7.00;;;;;;;41.75;35.68;100672.13;6154514;23;20381;-77
2023/03/14 02:48:14;;;;;;;16.73;7.43;;;;;;;41.76;35.57;100668.28;6154538;23;20465;-78
2023/03/14 02:50:40;;;;;;;14.83;6.30;;;;;;;41.79;35.34;100670.31;6154297;23;20772;-78
2023/03/14 02:53:06;;;;;;;20.43;7.37;;;;;;;41.74;35.69;100666.97;6154049;23;20393;-76
2023/03/14 02:55:32;;;;;;;24.57;7.80;;;;;;;41.86;35.20;100670.53;6154310;23;20405;-76
2023/03/14 02:57:58;;;;;;;17.50;6.27;;;;;;;41.82;35.42;100666.94;6154213;23;20389;-76
2023/03/14 03:00:24;;;;;;;18.43;7.07;;;;;;;41.82;35.91;100661.47;6156391;23;20513;-76
2023/03/14 03:02:50;;;;;;;13.40;7.20;;;;;;;41.92;35.32;100662.16;6153969;23;20393;-78
2023/03/14 03:05:16;;;;;;;14.40;7.47;;;;;;;41.75;35.47;100655.78;6154274;23;20398;-79
2023/03/14 03:07:42;;;;;;;18.13;6.73;;;;;;;41.78;35.50;100660.56;6154003;23;20443;-77
2023/03/14 03:10:08;;;;;;;17.50;7.37;;;;;;;41.71;35.84;100657.56;6154066;23;20773;-76
2023/03/14 03:12:34;;;;;;;20.53;7.63;;;;;;;41.47;36.18;100660.22;6153987;23;20737;-77
2023/03/14 03:15:00;;;;;;;16.13;7.70;;;;;;;41.65;35.33;100663.56;6154364;23;20402;-77
2023/03/14 03:17:26;;;;;;;18.80;8.13;;;;;;;41.61;35.71;100657.97;6156094;23;20882;-77
2023/03/14 03:19:52;;;;;;;15.13;6.60;;;;;;;41.88;35.39;100661.25;6154165;23;20413;-77
2023/03/14 03:22:18;;;;;;;26.33;8.27;;;;;;;41.88;35.78;100664.00;6153937;23;20381;-77
2023/03/14 03:24:44;;;;;;;14.27;7.80;;;;;;;41.82;35.66;100660.69;6154144;23;20440;-76
2023/03/14 03:27:10;;;;;;;16.30;6.60;;;;;;;41.79;35.42;100675.75;6154186;23;20872;-77
2023/03/14 03:29:36;;;;;;;18.87;8.07;;;;;;;41.70;35.70;100666.88;6154035;23;20772;-76
2023/03/14 03:32:02;;;;;;;15.23;6.60;;;;;;;41.65;35.94;100664.38;6153905;23;20153;-76
2023/03/14 03:34:28;;;;;;;13.00;6.90;;;;;;;41.23;36.31;100661.69;6154183;23;20773;-76
2023/03/14 03:36:58;;;;;;;15.80;9.30;;;;;;;41.52;36.20;100670.91;6155789;23;20411;-76
2023/03/14 03:39:24;;;;;;;14.80;6.90;;;;;;;41.75;35.49;100666.69;6153823;23;20387;-77
2023/03/14 03:41:50;;;;;;;18.93;7.43;;;;;;;41.80;35.80;100677.34;6153565;23;20468;-76
2023/03/14 03:44:16;;;;;;;15.63;7.50;;;;;;;41.82;35.79;100669.66;6153958;23;20385;-76
2023/03/14 03:46:42;;;;;;;14.30;6.90;;;;;;;41.86;35.65;100672.47;6153920;23;20389;-77
2023/03/14 03:49:07;;;;;;;19.87;7.00;;;;;;;41.74;35.85;100669.69;6153867;23;20385;-76
2023/03/14 03:51:33;;;;;;;16.20;7.37;;;;;;;41.52;35.67;100676.34;6154217;23;20396;-77
2023/03/14 03:53:59;;;;;;;19.53;8.37;;;;;;;41.78;34.83;100674.19;6153848;23;20393;-76
2023/03/14 03:56:25;;;;;;;13.53;6.50;;;;;;;41.86;35.09;100681.44;6153583;23;20420;-77
2023/03/14 03:58:51;;;;;;;18.87;6.73;;;;;;;41.78;35.74;100678.84;6153710;23;20395;-76
2023/03/14 04:01:17;;;;;;;19.93;7.13;;;;;;;41.76;35.69;100679.16;6153609;23;20388;-76
2023/03/14 04:03:43;;;;;;;13.90;6.67;;;;;;;41.81;34.89;100670.78;6153418;23;20413;-78
2023/03/14 04:06:12;;;;;;;22.97;8.20;;;;;;;41.77;35.50;100674.53;6153550;23;20381;-78
2023/03/14 04:08:40;;;;;;;18.43;7.07;;;;;;;41.86;35.67;100678.72;6153224;23;20842;-76
2023/03/14 04:11:06;;;;;;;15.33;7.70;;;;;;;41.90;35.37;100675.34;6153378;23;20512;-76
2023/03/14 04:13:32;;;;;;;16.53;6.90;;;;;;;41.88;35.32;100669.44;6153367;23;20736;-76
2023/03/14 04:15:59;;;;;;;16.20;7.30;;;;;;;41.77;35.62;100663.63;6153442;23;20378;-76
2023/03/14 04:18:24;;;;;;;18.93;8.63;;;;;;;41.63;35.75;100680.25;6153299;23;20385;-77
2023/03/14 04:20:55;;;;;;;24.70;9.33;;;;;;;41.60;35.50;100675.47;6153409;23;20389;-76
2023/03/14 04:23:25;;;;;;;20.43;7.00;;;;;;;41.67;35.28;100677.63;6153416;23;20385;-76
2023/03/14 04:25:52;;;;;;;17.90;6.90;;;;;;;41.64;35.55;100683.78;6153517;23;20389;-76
2023/03/14 04:28:18;;;;;;;15.50;7.33;;;;;;;41.51;35.40;100683.72;6153545;23;20459;-76
2023/03/14 04:30:44;;;;;;;23.63;7.37;;;;;;;41.44;35.58;100672.59;6154842;23;20492;-76
2023/03/14 04:33:12;;;;;;;23.47;8.80;;;;;;;41.61;35.69;100688.72;6153879;23;20838;-76
2023/03/14 04:35:38;;;;;;;19.43;7.53;;;;;;;41.63;35.35;100680.25;6153270;23;20413;-77
2023/03/14 04:38:04;;;;;;;18.17;7.03;;;;;;;41.76;35.46;100694.72;6153546;23;20414;-78
2023/03/14 04:40:30;;;;;;;17.57;7.70;;;;;;;41.74;35.57;100692.34;6153697;23;20373;-78
2023/03/14 04:42:56;;;;;;;12.50;7.43;;;;;;;41.67;35.69;100693.97;6153527;23;20377;-76
2023/03/14 04:45:22;;;;;;;25.23;8.47;;;;;;;41.86;36.11;100699.72;6153349;23;20378;-76
2023/03/14 04:47:48;;;;;;;15.40;7.63;;;;;;;41.80;35.52;100707.31;6153610;23;20420;-76
2023/03/14 04:50:14;;;;;;;14.33;7.57;;;;;;;41.56;35.76;100696.34;6153167;23;20776;-76
2023/03/14 04:52:40;;;;;;;18.27;6.97;;;;;;;41.46;36.07;100707.66;6153366;23;20420;-79
2023/03/14 04:55:06;;;;;;;14.27;6.80;;;;;;;41.50;36.11;100716.75;6153108;23;20405;-78
2023/03/14 04:57:32;;;;;;;22.37;6.97;;;;;;;41.69;35.76;100722.47;6155624;23;20489;-78
2023/03/14 04:59:58;;;;;;;13.90;6.93;;;;;;;41.67;35.73;100713.84;6153147;23;20464;-79
2023/03/14 05:02:24;;;;;;;16.53;9.20;;;;;;;41.51;35.84;100719.13;6153010;23;20385;-76
2023/03/14 05:04:50;;;;;;;18.40;7.30;;;;;;;41.47;35.89;100717.41;6152468;23;20417;-76
2023/03/14 05:07:16;;;;;;;18.83;7.17;;;;;;;41.32;36.22;100721.50;6155028;23;20913;-76
2023/03/14 05:09:42;;;;;;;25.53;9.73;;;;;;;41.41;35.70;100721.47;6157621;23;20770;-76
2023/03/14 05:12:08;;;;;;;13.33;7.97;;;;;;;41.47;36.12;100731.81;6157930;23;20400;-76
2023/03/14 05:14:34;;;;;;;15.20;7.17;;;;;;;41.54;36.14;100742.94;6158074;23;20381;-76
2023/03/14 05:17:00;;;;;;;17.73;8.47;;;;;;;41.60;36.12;100735.38;6158308;23;20425;-76
2023/03/14 05:19:26;;;;;;;14.37;7.57;;;;;;;41.39;36.27;100719.06;6157886;23;20909;-77
2023/03/14 05:21:52;;;;;;;14.80;7.90;;;;;;;41.31;36.14;100728.88;6158056;23;20856;-78
2023/03/14 05:24:18;;;;;;;20.53;8.57;;;;;;;41.45;36.09;100736.81;6157817;23;20881;-76
2023/03/14 05:26:44;;;;;;;17.53;7.30;;;;;;;41.38;36.00;100746.63;6157851;23;20415;-76
2023/03/14 05:29:10;;;;;;;20.93;8.80;;;;;;;41.23;36.05;100746.06;6157861;23;20380;-76
2023/03/14 05:31:36;;;;;;;16.83;7.33;;;;;;;41.21;36.38;100742.09;6157172;23;20487;-78
2023/03/14 05:34:02;;;;;;;24.60;9.10;;;;;;;41.37;36.55;100748.53;6156936;23;20404;-76
2023/03/14 05:36:27;;;;;;;26.03;9.37;;;;;;;41.26;36.48;100750.84;6157851;23;20388;-77
2023/03/14 05:38:53;;;;;;;19.47;7.33;;;;;;;41.40;36.62;100747.88;6157646;23;20399;-76
2023/03/14 05:41:19;;;;;;;15.90;6.97;;;;;;;41.72;35.99;100749.03;6157502;23;20483;-77
2023/03/14 05:43:45;;;;;;;19.13;7.60;;;;;;;41.73;34.98;100747.91;6157715;23;20385;-77
2023/03/14 05:46:11;;;;;;;22.27;9.00;;;;;;;41.78;34.75;100758.63;6158076;23;20387;-77
2023/03/14 05:48:38;;;;;;;20.10;7.30;;;;;;;41.84;34.76;100757.28;6157701;23;20400;-78
2023/03/14 05:51:04;;;;;;;25.20;8.30;;;;;;;41.71;35.46;100761.06;6157581;23;20454;-77
2023/03/14 05:53:30;;;;;;;14.83;7.93;;;;;;;41.63;35.84;100772.84;6157884;23;20385;-77
2023/03/14 05:55:56;;;;;;;17.70;8.17;;;;;;;41.54;35.54;100780.28;6157680;23;20404;-76
2023/03/14 05:58:23;;;;;;;19.17;8.97;;;;;;;41.55;35.28;100781.88;6157528;23;20474;-76
2023/03/14 06:00:50;;;;;;;16.73;9.40;;;;;;;41.64;35.90;100784.53;6153443;23;20849;-77
2023/03/14 06:03:16;;;;;;;15.20;8.80;;;;;;;41.53;35.04;100774.03;6154357;23;20385;-77
2023/03/14 06:05:42;;;;;;;23.53;9.10;;;;;;;41.69;34.90;100789.78;6156246;23;20388;-77
2023/03/14 06:08:08;;;;;;;20.47;9.83;;;;;;;41.60;35.56;100790.63;6151762;23;20511;-77
2023/03/14 06:10:36;;;;;;;16.10;6.70;;;;;;;41.63;35.42;100804.72;6150699;23;20829;-76
2023/03/14 06:13:02;;;;;;;16.77;7.20;;;;;;;41.43;36.30;100795.41;6152469;23;20381;-77
2023/03/14 06:15:28;;;;;;;17.53;7.63;;;;;;;41.36;36.12;100795.16;6153158;23;20388;-77
2023/03/14 06:17:55;;;;;;;17.37;6.93;;;;;;;41.39;35.82;100781.69;6153447;23;20385;-76
2023/03/14 06:20:22;;;;;;;18.13;8.50;;;;;;;41.47;35.64;100799.09;6155348;23;20748;-77
2023/03/14 06:22:48;;;;;;;15.97;10.40;;;;;;;41.51;35.80;100813.63;6153514;23;20393;-79
2023/03/14 06:25:13;;;;;;;17.53;8.90;;;;;;;41.62;35.83;100798.50;6154677;23;20404;-77
2023/03/14 06:27:39;;;;;;;19.20;8.87;;;;;;;41.64;35.33;100819.94;6154482;23;20397;-78
2023/03/14 06:30:06;;;;;;;18.13;8.97;;;;;;;41.58;35.69;100809.25;6156198;23;20429;-80
2023/03/14 06:32:32;;;;;;;24.17;7.83;;;;;;;41.52;35.79;100826.13;6152701;23;20783;-80
2023/03/14 06:35:00;;;;;;;18.30;7.90;;;;;;;41.64;35.46;100826.19;6154849;23;20854;-78
2023/03/14 06:37:28;;;;;;;20.90;7.97;;;;;;;41.56;35.85;100844.19;6154515;23;20507;-78
2023/03/14 06:39:55;;;;;;;21.13;8.03;;;;;;;41.65;35.91;100849.56;6154565;23;20385;-77
2023/03/14 06:42:21;;;;;;;22.27;8.63;;;;;;;41.75;35.06;100842.94;6154702;23;20904;-78
2023/03/14 06:44:47;;;;;;;18.30;9.73;;;;;;;41.61;35.62;100854.84;6152343;23;20409;-79
2023/03/14 06:47:13;;;;;;;18.07;9.57;;;;;;;41.82;35.17;100863.06;6153431;23;20367;-83
2023/03/14 06:49:39;;;;;;;20.00;9.37;;;;;;;41.98;35.00;100870.63;6153195;23;20505;-83
2023/03/14 06:52:05;;;;;;;20.03;8.43;;;;;;;41.94;35.42;100866.97;6155523;23;20365;-78
2023/03/14 06:54:31;;;;;;;22.93;10.50;;;;;;;42.06;35.02;100877.94;6152071;23;20393;-80
2023/03/14 06:56:57;;;;;;;22.07;9.30;;;;;;;42.03;34.35;100878.59;6153891;23;20409;-82
2023/03/14 06:59:23;;;;;;;26.43;11.20;;;;;;;41.97;34.13;100869.03;6153940;23;20874;-78
2023/03/14 07:01:50;;;;;;;20.80;9.73;;;;;;;42.09;34.38;100882.69;6154538;23;20385;-79
2023/03/14 07:04:17;;;;;;;24.63;8.23;;;;;;;42.13;34.25;100891.81;6154045;23;20881;-78
2023/03/14 07:06:46;;;;;;;18.40;9.37;;;;;;;42.11;34.22;100883.97;6153445;23;20925;-78
2023/03/14 07:09:13;;;;;;;27.97;8.63;;;;;;;42.01;35.01;100891.75;6153724;23;20801;-78
2023/03/14 07:11:39;;;;;;;29.30;9.00;;;;;;;42.05;34.58;100892.66;6155886;23;20967;-79
2023/03/14 07:14:05;;;;;;;22.17;7.60;;;;;;;41.98;34.92;100893.22;6154066;23;20413;-80
2023/03/14 07:16:32;;;;;;;23.50;8.50;;;;;;;42.10;35.33;100895.19;6153870;23;20389;-83
2023/03/14 07:19:00;;;;;;;21.20;7.50;;;;;;;41.97;35.38;100894.34;6155754;23;20397;-79
2023/03/14 07:21:26;;;;;;;12.40;5.73;;;;;;;41.95;34.88;100909.44;6153831;23;20381;-78
2023/03/14 07:23:52;;;;;;;14.63;7.63;;;;;;;41.82;35.24;100895.75;6153676;23;20476;-77
2023/03/14 07:26:18;;;;;;;20.03;6.73;;;;;;;41.91;34.93;100898.41;6153515;23;20440;-79
2023/03/14 07:28:44;;;;;;;20.73;6.73;;;;;;;42.03;35.26;100892.22;6155864;23;20381;-78
2023/03/14 07:31:10;;;;;;;21.13;10.30;;;;;;;41.92;35.39;100880.91;6153680;23;20428;-79
2023/03/14 07:33:36;;;;;;;23.60;10.80;;;;;;;42.02;34.78;100882.44;6155271;23;20424;-79
2023/03/14 07:36:03;;;;;;;19.53;9.23;;;;;;;42.16;34.99;100893.88;6152912;23;20397;-83
2023/03/14 07:38:29;;;;;;;23.03;7.63;;;;;;;42.22;35.16;100887.09;6151922;23;20859;-79
2023/03/14 07:41:06;;;;;;;16.80;8.23;;;;;;;42.31;34.85;100887.81;6152519;23;20460;-80
2023/03/14 07:43:32;;;;;;;21.10;10.73;;;;;;;42.34;34.95;100887.13;6152560;23;20440;-79
2023/03/14 07:45:58;;;;;;;16.73;8.77;;;;;;;42.36;35.22;100876.72;6152494;23;20889;-81
2023/03/14 07:48:26;;;;;;;16.77;7.90;;;;;;;42.46;35.15;100885.56;6152366;23;20912;-81
2023/03/14 07:50:53;;;;;;;22.77;8.77;;;;;;;42.23;35.10;100883.22;6153534;23;20435;-79
2023/03/14 07:53:20;;;;;;;21.33;8.50;;;;;;;42.39;34.97;100900.56;6153895;23;20384;-79
2023/03/14 07:55:47;;;;;;;13.60;6.50;;;;;;;42.35;34.34;100891.44;6153443;23;20882;-80
2023/03/14 07:58:14;;;;;;;22.10;7.60;;;;;;;42.38;34.55;100909.88;6153645;23;20381;-80
2023/03/14 08:00:40;;;;;;;26.47;7.20;;;;;;;42.43;34.59;100905.34;6155398;23;20381;-80
2023/03/14 08:03:06;;;;;;;15.87;8.20;;;;;;;42.39;34.23;100895.09;6153095;23;20464;-81
2023/03/14 08:05:38;;;;;;;20.37;9.50;;;;;;;42.43;34.35;100911.59;6152759;23;20785;-80
2023/03/14 08:08:05;;;;;;;18.97;8.00;;;;;;;42.50;33.67;100908.31;6152200;23;20441;-84
2023/03/14 08:10:31;;;;;;;14.20;7.90;;;;;;;42.13;34.60;100911.69;6152121;23;20436;-80
2023/03/14 08:12:58;;;;;;;17.60;10.00;;;;;;;42.26;34.36;100919.94;6152349;23;20388;-78
2023/03/14 08:15:25;;;;;;;20.13;7.03;;;;;;;42.34;34.63;100914.41;6152313;23;20385;-79
2023/03/14 08:17:53;;;;;;;18.53;6.97;;;;;;;42.34;35.03;100917.13;6152283;23;20476;-79
2023/03/14 08:20:21;;;;;;;23.50;7.17;;;;;;;42.19;34.93;100906.06;6151729;23;20385;-81
2023/03/14 08:22:48;;;;;;;12.10;6.50;;;;;;;42.11;34.74;100926.75;6150219;23;20385;-80
2023/03/14 08:25:14;;;;;;;14.00;6.73;;;;;;;42.03;35.15;100928.44;6150150;23;20389;-82
2023/03/14 08:27:41;;;;;;;15.30;7.43;;;;;;;42.04;35.03;100935.47;6149868;23;20393;-79
2023/03/14 08:30:10;;;;;;;16.90;7.80;;;;;;;42.02;35.00;100929.56;6150027;23;20432;-83
2023/03/14 08:32:36;;;;;;;17.13;7.60;;;;;;;42.15;34.93;100935.88;6149255;23;20396;-81
2023/03/14 08:35:03;;;;;;;15.53;7.50;;;;;;;42.18;34.89;100934.47;6150201;23;20381;-83
2023/03/14 08:37:31;;;;;;;20.00;6.87;;;;;;;42.33;34.62;100929.16;6151749;23;20409;-79
2023/03/14 08:39:57;;;;;;;13.00;6.30;;;;;;;42.26;34.97;100942.56;6151870;23;20467;-78
2023/03/14 08:42:23;;;;;;;16.23;7.00;;;;;;;42.32;35.49;100941.22;6152082;23;20439;-77
2023/03/14 08:44:53;;;;;;;20.33;7.50;;;;;;;42.34;35.10;100938.94;6151822;23;20415;-79
2023/03/14 08:47:20;;;;;;;27.60;7.97;;;;;;;42.35;34.69;100937.78;6153870;23;20946;-79
2023/03/14 08:49:46;;;;;;;14.80;6.53;;;;;;;42.42;34.74;100933.72;6153645;23;20911;-78
2023/03/14 08:52:12;;;;;;;15.20;6.23;;;;;;;42.39;34.68;100936.00;6151872;23;20477;-79
2023/03/14 08:54:38;;;;;;;14.10;7.13;;;;;;;42.35;34.98;100939.72;6152096;23;20389;-79
2023/03/14 08:57:04;;;;;;;12.00;6.90;;;;;;;42.28;34.86;100931.31;6151509;23;20412;-78
2023/03/14 08:59:29;;;;;;;13.73;6.90;;;;;;;42.43;34.95;100941.59;6151885;23;20867;-79
2023/03/14 09:01:55;;;;;;;25.20;9.03;;;;;;;42.51;34.54;100950.81;6151820;23;20432;-79
2023/03/14 09:04:21;;;;;;;13.70;6.73;;;;;;;42.54;34.42;100939.22;6152338;23;20401;-79
2023/03/14 09:06:47;;;;;;;21.73;8.10;;;;;;;42.53;34.27;100943.09;6151881;23;20750;-78
2023/03/14 09:09:13;;;;;;;18.97;7.80;;;;;;;42.49;34.09;100942.19;6151065;23;20933;-81
2023/03/14 09:11:40;;;;;;;12.60;6.17;;;;;;;42.51;34.49;100946.16;6151793;23;20435;-79
2023/03/14 09:14:06;;;;;;;14.63;7.03;;;;;;;42.53;34.43;100935.69;6152622;23;20472;-78
2023/03/14 09:16:33;;;;;;;18.10;6.67;;;;;;;42.46;34.67;100930.00;6152879;23;20866;-78
2023/03/14 09:18:59;;;;;;;17.40;7.60;;;;;;;42.61;34.35;100942.25;6152548;23;20488;-81
2023/03/14 09:21:27;;;;;;;17.33;7.43;;;;;;;42.65;33.63;100933.03;6154946;23;20358;-78
2023/03/14 09:23:53;;;;;;;17.20;8.20;;;;;;;42.68;33.37;100930.78;6151732;23;20396;-78
2023/03/14 09:26:19;;;;;;;11.17;6.33;;;;;;;42.60;34.07;100938.72;6153394;23;20777;-78
2023/03/14 09:28:45;;;;;;;14.03;7.60;;;;;;;42.54;34.29;100931.03;6151511;23;20389;-79
2023/03/14 09:31:12;;;;;;;15.37;7.57;;;;;;;42.67;34.18;100932.72;6151575;23;20440;-79
2023/03/14 09:33:38;;;;;;;30.60;12.80;;;;;;;42.72;34.09;100940.66;6151872;23;20378;-79
2023/03/14 09:36:08;;;;;;;22.53;9.10;;;;;;;42.68;33.87;100936.25;6151641;23;20409;-78
2023/03/14 09:38:34;;;;;;;20.13;8.80;;;;;;;42.70;33.25;100931.22;6127310;23;20389;-79
2023/03/14 09:41:03;;;;;;;12.83;6.80;;;;;;;42.61;33.47;100937.59;6152659;23;20373;-78
2023/03/14 09:43:33;;;;;;;17.43;8.27;;;;;;;42.47;33.62;100933.53;6152590;23;20838;-78
2023/03/14 09:46:02;;;;;;;13.33;6.80;;;;;;;42.68;33.51;100937.03;6152527;23;20380;-78
2023/03/14 09:48:32;;;;;;;18.20;7.00;;;;;;;42.81;33.12;100930.47;6152375;23;20381;-78
2023/03/14 09:51:02;;;;;;;14.90;6.77;;;;;;;42.88;33.26;100935.34;6153999;23;20507;-79
2023/03/14 09:53:39;;;;;;;24.53;10.67;;;;;;;42.75;33.73;100936.47;6154674;23;20397;-79
2023/03/14 09:56:14;;;;;;;18.27;8.97;;;;;;;42.82;33.93;100937.50;6154644;23;20404;-79
2023/03/14 09:58:42;;;;;;;15.87;8.57;;;;;;;42.81;34.77;100940.56;6154567;23;20435;-79
2023/03/14 10:01:13;;;;;;;15.53;8.30;;;;;;;42.80;33.88;100942.50;6153077;23;20401;-79
2023/03/14 10:03:41;;;;;;;17.23;8.60;;;;;;;42.66;34.21;100936.56;6153197;23;20381;-77
2023/03/14 10:06:14;;;;;;;12.07;7.30;;;;;;;42.69;34.06;100954.19;6153226;23;20405;-82
2023/03/14 10:08:41;;;;;;;14.00;7.80;;;;;;;42.86;33.50;100949.34;6153188;23;20843;-79
2023/03/14 10:11:16;;;;;;;15.10;7.40;;;;;;;42.84;33.40;100948.06;6153967;23;20964;-80
2023/03/14 10:14:00;;;;;;;15.67;6.67;;;;;;;42.88;33.85;100957.97;6153771;23;20537;-80
2023/03/14 10:16:35;;;;;;;15.50;6.87;;;;;;;42.86;34.19;100954.81;6154577;23;20429;-77
2023/03/14 10:19:09;;;;;;;18.50;7.00;;;;;;;43.00;33.85;100959.16;6154828;23;20479;-76
2023/03/14 10:21:40;;;;;;;17.07;7.37;;;;;;;42.91;34.03;100942.88;6154502;23;20759;-78
2023/03/14 10:24:22;;;;;;;15.37;6.43;;;;;;;42.84;34.14;100956.25;6154728;23;20389;-77
2023/03/14 10:26:58;;;;;;;12.40;7.47;;;;;;;42.92;34.08;100952.66;6156250;23;20834;-80
2023/03/14 10:29:24;;;;;;;17.73;7.47;;;;;;;42.81;33.98;100944.09;6154425;23;20476;-77
2023/03/14 10:31:50;;;;;;;13.00;5.60;;;;;;;42.99;33.63;100946.66;6154427;23;20733;-77
2023/03/14 10:34:22;;;;;;;16.50;8.00;;;;;;;42.82;34.01;100936.72;6154601;23;20469;-79
2023/03/14 10:36:53;;;;;;;14.13;7.90;;;;;;;42.98;33.61;100934.94;6154328;23;20460;-77
2023/03/14 10:39:58;;;;;;;12.40;5.97;;;;;;;42.82;33.95;100932.03;6154298;23;20472;-79
2023/03/14 10:42:33;;;;;;;13.97;6.90;;;;;;;42.92;33.82;100941.75;6153142;23;20384;-79
2023/03/14 10:45:22;;;;;;;24.07;6.30;;;;;;;42.84;33.60;100932.50;6153032;23;20407;-79
2023/03/14 10:47:49;;;;;;;15.43;6.93;;;;;;;42.96;33.77;100926.25;6154720;23;20440;-80
2023/03/14 10:50:31;;;;;;;12.10;6.83;;;;;;;43.08;33.74;100925.50;6154347;23;20913;-79
2023/03/14 10:53:05;;;;;;;24.77;8.33;;;;;;;42.96;33.85;100920.81;6152062;23;20389;-79
2023/03/14 10:55:44;;;;;;;18.33;7.37;;;;;;;43.05;33.64;100918.81;6151727;23;20397;-79
2023/03/14 10:58:29;;;;;;;11.43;7.23;;;;;;;42.90;34.02;100916.69;6153597;23;20409;-82
2023/03/14 11:01:17;;;;;;;17.40;7.50;;;;;;;43.09;33.73;100924.34;6153783;23;20404;-78
2023/03/14 11:03:59;;;;;;;12.63;7.83;;;;;;;43.15;33.41;100912.88;6154047;23;20553;-79
2023/03/14 11:06:54;;;;;;;18.33;7.73;;;;;;;43.22;33.71;100915.06;6153136;23;20392;-79
2023/03/14 11:09:52;;;;;;;19.00;8.40;;;;;;;43.20;33.51;100922.78;6027354;23;20463;-79
2023/03/14 11:12:23;;;;;;;18.07;8.07;;;;;;;43.35;33.21;100913.91;6147514;23;20451;-81
2023/03/14 11:14:58;;;;;;;12.87;6.13;;;;;;;43.24;33.42;100898.31;6153889;23;20391;-78
2023/03/14 11:17:38;;;;;;;13.83;6.53;;;;;;;42.73;33.74;100906.03;6155129;23;20381;-80
2023/03/14 11:20:32;;;;;;;13.50;5.67;;;;;;;42.69;34.11;100913.28;6155179;23;20357;-79
2023/03/14 11:23:23;;;;;;;18.20;6.90;;;;;;;42.84;33.84;100907.94;6152886;23;20397;-80